sensor_id;sensor_type;location;lat;lon;timestamp;P1;durP1;ratioP1;P2;durP2;ratioP2
83404;SDS011;73331;48.168;20.776;2024-02-21T00:00:51;107.05;;;39.63;;
83404;SDS011;73331;48.168;20.776;2024-02-21T00:02:22;104.07;;;37.63;;
83404;SDS011;73331;48.168;20.776;2024-02-21T00:03:52;106.43;;;35.55;;
83404;SDS011;73331;48.168;20.776;2024-02-21T00:05:23;109.93;;;38.88;;
83404;SDS011;73331;48.168;20.776;2024-02-21T00:06:53;106.72;;;35.95;;
83404;SDS011;73331;48.168;20.776;2024-02-21T00:08:24;104.03;;;35.15;;
83404;SDS011;73331;48.168;20.776;2024-02-21T00:09:54;102.30;;;37.08;;
83404;SDS011;73331;48.168;20.776;2024-02-21T00:11:25;90.13;;;34.58;;
83404;SDS011;73331;48.168;20.776;2024-02-21T00:12:55;93.03;;;32.53;;
83404;SDS011;73331;48.168;20.776;2024-02-21T00:14:26;91.95;;;34.15;;
83404;SDS011;73331;48.168;20.776;2024-02-21T00:15:56;85.53;;;32.67;;
83404;SDS011;73331;48.168;20.776;2024-02-21T00:17:27;84.13;;;30.15;;
83404;SDS011;73331;48.168;20.776;2024-02-21T00:18:57;91.45;;;34.08;;
83404;SDS011;73331;48.168;20.776;2024-02-21T00:20:28;89.43;;;30.95;;
83404;SDS011;73331;48.168;20.776;2024-02-21T00:21:58;81.05;;;30.48;;
83404;SDS011;73331;48.168;20.776;2024-02-21T00:23:29;85.63;;;30.60;;
83404;SDS011;73331;48.168;20.776;2024-02-21T00:24:59;84.10;;;31.45;;
83404;SDS011;73331;48.168;20.776;2024-02-21T00:26:30;83.53;;;30.83;;
83404;SDS011;73331;48.168;20.776;2024-02-21T00:28:00;86.30;;;29.88;;
83404;SDS011;73331;48.168;20.776;2024-02-21T00:29:31;79.65;;;29.17;;
83404;SDS011;73331;48.168;20.776;2024-02-21T00:31:01;82.72;;;31.38;;
83404;SDS011;73331;48.168;20.776;2024-02-21T00:32:32;84.43;;;27.90;;
83404;SDS011;73331;48.168;20.776;2024-02-21T00:34:04;77.10;;;28.00;;
83404;SDS011;73331;48.168;20.776;2024-02-21T00:35:35;84.88;;;29.70;;
83404;SDS011;73331;48.168;20.776;2024-02-21T00:37:05;77.35;;;29.60;;
83404;SDS011;73331;48.168;20.776;2024-02-21T00:38:36;69.13;;;26.73;;
83404;SDS011;73331;48.168;20.776;2024-02-21T00:40:06;81.80;;;26.98;;
83404;SDS011;73331;48.168;20.776;2024-02-21T00:41:37;72.13;;;26.08;;
83404;SDS011;73331;48.168;20.776;2024-02-21T00:43:08;72.65;;;27.67;;
83404;SDS011;73331;48.168;20.776;2024-02-21T00:44:38;79.85;;;27.40;;
83404;SDS011;73331;48.168;20.776;2024-02-21T00:46:09;82.18;;;31.27;;
83404;SDS011;73331;48.168;20.776;2024-02-21T00:47:39;77.28;;;30.25;;
83404;SDS011;73331;48.168;20.776;2024-02-21T00:49:10;75.72;;;29.17;;
83404;SDS011;73331;48.168;20.776;2024-02-21T00:50:40;81.05;;;28.30;;
83404;SDS011;73331;48.168;20.776;2024-02-21T00:52:11;73.05;;;27.60;;
83404;SDS011;73331;48.168;20.776;2024-02-21T00:53:42;86.13;;;30.27;;
83404;SDS011;73331;48.168;20.776;2024-02-21T00:55:13;85.78;;;31.88;;
83404;SDS011;73331;48.168;20.776;2024-02-21T00:56:43;75.32;;;28.88;;
83404;SDS011;73331;48.168;20.776;2024-02-21T00:58:13;72.65;;;27.42;;
83404;SDS011;73331;48.168;20.776;2024-02-21T00:59:44;75.57;;;27.00;;
83404;SDS011;73331;48.168;20.776;2024-02-21T01:01:20;77.43;;;30.45;;
83404;SDS011;73331;48.168;20.776;2024-02-21T01:02:52;81.35;;;29.23;;
83404;SDS011;73331;48.168;20.776;2024-02-21T01:04:23;78.13;;;27.92;;
83404;SDS011;73331;48.168;20.776;2024-02-21T01:05:54;80.50;;;30.10;;
83404;SDS011;73331;48.168;20.776;2024-02-21T01:07:25;77.10;;;27.88;;
83404;SDS011;73331;48.168;20.776;2024-02-21T01:08:55;79.30;;;28.60;;
83404;SDS011;73331;48.168;20.776;2024-02-21T01:10:26;76.13;;;29.63;;
83404;SDS011;73331;48.168;20.776;2024-02-21T01:11:56;86.20;;;30.50;;
83404;SDS011;73331;48.168;20.776;2024-02-21T01:13:27;76.15;;;28.63;;
83404;SDS011;73331;48.168;20.776;2024-02-21T01:14:57;88.00;;;28.83;;
83404;SDS011;73331;48.168;20.776;2024-02-21T01:16:28;77.65;;;27.10;;
83404;SDS011;73331;48.168;20.776;2024-02-21T01:17:58;80.57;;;28.85;;
83404;SDS011;73331;48.168;20.776;2024-02-21T01:19:29;90.45;;;32.17;;
83404;SDS011;73331;48.168;20.776;2024-02-21T01:20:59;83.68;;;31.70;;
83404;SDS011;73331;48.168;20.776;2024-02-21T01:22:30;75.43;;;29.30;;
83404;SDS011;73331;48.168;20.776;2024-02-21T01:24:01;86.15;;;30.13;;
83404;SDS011;73331;48.168;20.776;2024-02-21T01:25:31;83.05;;;30.25;;
83404;SDS011;73331;48.168;20.776;2024-02-21T01:27:02;86.88;;;29.73;;
83404;SDS011;73331;48.168;20.776;2024-02-21T01:28:33;95.70;;;30.33;;
83404;SDS011;73331;48.168;20.776;2024-02-21T01:30:04;83.28;;;29.27;;
83404;SDS011;73331;48.168;20.776;2024-02-21T01:33:06;86.85;;;28.00;;
83404;SDS011;73331;48.168;20.776;2024-02-21T01:34:36;84.30;;;29.88;;
83404;SDS011;73331;48.168;20.776;2024-02-21T01:36:07;77.80;;;28.45;;
83404;SDS011;73331;48.168;20.776;2024-02-21T01:37:37;77.75;;;26.50;;
83404;SDS011;73331;48.168;20.776;2024-02-21T01:39:08;69.38;;;25.33;;
83404;SDS011;73331;48.168;20.776;2024-02-21T01:40:38;67.93;;;24.92;;
83404;SDS011;73331;48.168;20.776;2024-02-21T01:42:09;69.18;;;25.73;;
83404;SDS011;73331;48.168;20.776;2024-02-21T01:43:39;71.88;;;27.25;;
83404;SDS011;73331;48.168;20.776;2024-02-21T01:45:10;63.38;;;25.05;;
83404;SDS011;73331;48.168;20.776;2024-02-21T01:46:41;84.03;;;28.98;;
83404;SDS011;73331;48.168;20.776;2024-02-21T01:48:11;81.35;;;29.00;;
83404;SDS011;73331;48.168;20.776;2024-02-21T01:49:42;88.57;;;29.63;;
83404;SDS011;73331;48.168;20.776;2024-02-21T01:51:13;81.57;;;29.55;;
83404;SDS011;73331;48.168;20.776;2024-02-21T01:52:43;88.78;;;30.95;;
83404;SDS011;73331;48.168;20.776;2024-02-21T01:54:17;88.65;;;29.48;;
83404;SDS011;73331;48.168;20.776;2024-02-21T01:57:20;92.60;;;29.67;;
83404;SDS011;73331;48.168;20.776;2024-02-21T01:58:50;87.47;;;28.15;;
83404;SDS011;73331;48.168;20.776;2024-02-21T02:00:21;85.45;;;28.80;;
83404;SDS011;73331;48.168;20.776;2024-02-21T02:01:53;92.10;;;31.17;;
83404;SDS011;73331;48.168;20.776;2024-02-21T02:03:25;82.88;;;28.00;;
83404;SDS011;73331;48.168;20.776;2024-02-21T02:04:56;94.38;;;28.55;;
83404;SDS011;73331;48.168;20.776;2024-02-21T02:06:27;94.88;;;30.48;;
83404;SDS011;73331;48.168;20.776;2024-02-21T02:07:58;91.80;;;30.17;;
83404;SDS011;73331;48.168;20.776;2024-02-21T02:09:28;83.25;;;27.05;;
83404;SDS011;73331;48.168;20.776;2024-02-21T02:10:58;78.80;;;27.70;;
83404;SDS011;73331;48.168;20.776;2024-02-21T02:12:29;73.28;;;24.75;;
83404;SDS011;73331;48.168;20.776;2024-02-21T02:14:00;73.70;;;26.02;;
83404;SDS011;73331;48.168;20.776;2024-02-21T02:17:14;72.72;;;26.05;;
83404;SDS011;73331;48.168;20.776;2024-02-21T02:18:44;70.70;;;25.17;;
83404;SDS011;73331;48.168;20.776;2024-02-21T02:20:15;62.63;;;26.02;;
83404;SDS011;73331;48.168;20.776;2024-02-21T02:21:50;71.80;;;25.45;;
83404;SDS011;73331;48.168;20.776;2024-02-21T02:24:59;75.40;;;27.55;;
83404;SDS011;73331;48.168;20.776;2024-02-21T02:26:30;78.97;;;31.02;;
83404;SDS011;73331;48.168;20.776;2024-02-21T02:28:00;85.45;;;29.90;;
83404;SDS011;73331;48.168;20.776;2024-02-21T02:29:32;86.45;;;32.15;;
83404;SDS011;73331;48.168;20.776;2024-02-21T02:31:03;88.18;;;32.30;;
83404;SDS011;73331;48.168;20.776;2024-02-21T02:32:33;95.78;;;32.78;;
83404;SDS011;73331;48.168;20.776;2024-02-21T02:34:04;86.68;;;30.70;;
83404;SDS011;73331;48.168;20.776;2024-02-21T02:35:34;103.47;;;35.67;;
83404;SDS011;73331;48.168;20.776;2024-02-21T02:37:06;104.70;;;34.25;;
83404;SDS011;73331;48.168;20.776;2024-02-21T02:38:36;105.45;;;35.20;;
83404;SDS011;73331;48.168;20.776;2024-02-21T02:40:07;102.45;;;33.80;;
83404;SDS011;73331;48.168;20.776;2024-02-21T02:41:38;113.88;;;34.10;;
83404;SDS011;73331;48.168;20.776;2024-02-21T02:43:09;122.80;;;35.40;;
83404;SDS011;73331;48.168;20.776;2024-02-21T02:44:39;115.95;;;34.58;;
83404;SDS011;73331;48.168;20.776;2024-02-21T02:46:10;108.10;;;37.30;;
83404;SDS011;73331;48.168;20.776;2024-02-21T02:47:40;119.70;;;35.92;;
83404;SDS011;73331;48.168;20.776;2024-02-21T02:49:11;109.25;;;34.05;;
83404;SDS011;73331;48.168;20.776;2024-02-21T02:50:41;106.03;;;36.03;;
83404;SDS011;73331;48.168;20.776;2024-02-21T02:52:12;112.32;;;34.17;;
83404;SDS011;73331;48.168;20.776;2024-02-21T02:53:42;107.43;;;34.00;;
83404;SDS011;73331;48.168;20.776;2024-02-21T02:55:13;110.10;;;34.70;;
83404;SDS011;73331;48.168;20.776;2024-02-21T02:56:43;110.22;;;33.70;;
83404;SDS011;73331;48.168;20.776;2024-02-21T02:58:14;112.13;;;32.33;;
83404;SDS011;73331;48.168;20.776;2024-02-21T02:59:48;108.72;;;34.85;;
83404;SDS011;73331;48.168;20.776;2024-02-21T03:01:19;100.05;;;32.10;;
83404;SDS011;73331;48.168;20.776;2024-02-21T03:02:49;97.55;;;29.15;;
83404;SDS011;73331;48.168;20.776;2024-02-21T03:04:20;103.25;;;31.42;;
83404;SDS011;73331;48.168;20.776;2024-02-21T03:05:50;96.85;;;32.55;;
83404;SDS011;73331;48.168;20.776;2024-02-21T03:07:21;96.10;;;32.40;;
83404;SDS011;73331;48.168;20.776;2024-02-21T03:08:51;88.50;;;29.40;;
83404;SDS011;73331;48.168;20.776;2024-02-21T03:10:24;97.85;;;30.67;;
83404;SDS011;73331;48.168;20.776;2024-02-21T03:11:55;87.75;;;29.08;;
83404;SDS011;73331;48.168;20.776;2024-02-21T03:13:32;89.78;;;28.00;;
83404;SDS011;73331;48.168;20.776;2024-02-21T03:15:03;86.35;;;27.70;;
83404;SDS011;73331;48.168;20.776;2024-02-21T03:16:34;91.05;;;30.05;;
83404;SDS011;73331;48.168;20.776;2024-02-21T03:18:05;93.78;;;32.10;;
83404;SDS011;73331;48.168;20.776;2024-02-21T03:19:35;163.32;;;52.92;;
83404;SDS011;73331;48.168;20.776;2024-02-21T03:21:06;119.72;;;37.40;;
83404;SDS011;73331;48.168;20.776;2024-02-21T03:22:37;101.32;;;31.67;;
83404;SDS011;73331;48.168;20.776;2024-02-21T03:24:07;107.82;;;31.55;;
83404;SDS011;73331;48.168;20.776;2024-02-21T03:25:38;92.53;;;28.38;;
83404;SDS011;73331;48.168;20.776;2024-02-21T03:27:08;94.20;;;29.38;;
83404;SDS011;73331;48.168;20.776;2024-02-21T03:28:39;82.70;;;26.42;;
83404;SDS011;73331;48.168;20.776;2024-02-21T03:30:09;96.18;;;30.00;;
83404;SDS011;73331;48.168;20.776;2024-02-21T03:31:40;94.38;;;27.63;;
83404;SDS011;73331;48.168;20.776;2024-02-21T03:33:11;77.18;;;26.85;;
83404;SDS011;73331;48.168;20.776;2024-02-21T03:34:41;77.45;;;26.73;;
83404;SDS011;73331;48.168;20.776;2024-02-21T03:36:15;99.18;;;29.83;;
83404;SDS011;73331;48.168;20.776;2024-02-21T03:37:45;78.90;;;27.98;;
83404;SDS011;73331;48.168;20.776;2024-02-21T03:39:16;85.90;;;28.65;;
83404;SDS011;73331;48.168;20.776;2024-02-21T03:40:46;83.80;;;28.33;;
83404;SDS011;73331;48.168;20.776;2024-02-21T03:42:17;89.05;;;28.63;;
83404;SDS011;73331;48.168;20.776;2024-02-21T03:43:47;84.00;;;28.30;;
83404;SDS011;73331;48.168;20.776;2024-02-21T03:45:18;91.35;;;26.08;;
83404;SDS011;73331;48.168;20.776;2024-02-21T03:46:48;82.00;;;28.50;;
83404;SDS011;73331;48.168;20.776;2024-02-21T03:48:19;89.78;;;30.77;;
83404;SDS011;73331;48.168;20.776;2024-02-21T03:49:50;86.90;;;27.23;;
83404;SDS011;73331;48.168;20.776;2024-02-21T03:51:20;71.38;;;23.52;;
83404;SDS011;73331;48.168;20.776;2024-02-21T03:52:51;72.22;;;25.92;;
83404;SDS011;73331;48.168;20.776;2024-02-21T03:54:21;85.00;;;26.13;;
83404;SDS011;73331;48.168;20.776;2024-02-21T03:55:52;79.45;;;26.45;;
83404;SDS011;73331;48.168;20.776;2024-02-21T03:57:22;80.50;;;25.35;;
83404;SDS011;73331;48.168;20.776;2024-02-21T03:58:53;68.07;;;24.40;;
83404;SDS011;73331;48.168;20.776;2024-02-21T04:00:23;72.10;;;25.58;;
83404;SDS011;73331;48.168;20.776;2024-02-21T04:01:54;80.18;;;27.92;;
83404;SDS011;73331;48.168;20.776;2024-02-21T04:03:24;75.13;;;26.23;;
83404;SDS011;73331;48.168;20.776;2024-02-21T04:04:55;69.10;;;23.40;;
83404;SDS011;73331;48.168;20.776;2024-02-21T04:06:25;70.05;;;24.63;;
83404;SDS011;73331;48.168;20.776;2024-02-21T04:07:56;66.13;;;24.05;;
83404;SDS011;73331;48.168;20.776;2024-02-21T04:09:26;65.93;;;23.40;;
83404;SDS011;73331;48.168;20.776;2024-02-21T04:10:57;59.70;;;19.67;;
83404;SDS011;73331;48.168;20.776;2024-02-21T04:12:27;50.90;;;18.92;;
83404;SDS011;73331;48.168;20.776;2024-02-21T04:13:58;48.88;;;19.67;;
83404;SDS011;73331;48.168;20.776;2024-02-21T04:15:28;47.45;;;17.52;;
83404;SDS011;73331;48.168;20.776;2024-02-21T04:16:59;48.53;;;17.70;;
83404;SDS011;73331;48.168;20.776;2024-02-21T04:18:29;43.83;;;16.20;;
83404;SDS011;73331;48.168;20.776;2024-02-21T04:20:03;44.88;;;15.18;;
83404;SDS011;73331;48.168;20.776;2024-02-21T04:21:41;43.17;;;14.98;;
83404;SDS011;73331;48.168;20.776;2024-02-21T04:23:11;40.50;;;16.30;;
83404;SDS011;73331;48.168;20.776;2024-02-21T04:24:42;43.67;;;16.00;;
83404;SDS011;73331;48.168;20.776;2024-02-21T04:26:12;39.22;;;14.82;;
83404;SDS011;73331;48.168;20.776;2024-02-21T04:27:43;35.20;;;13.82;;
83404;SDS011;73331;48.168;20.776;2024-02-21T04:29:13;38.03;;;14.38;;
83404;SDS011;73331;48.168;20.776;2024-02-21T04:30:44;71.07;;;26.58;;
83404;SDS011;73331;48.168;20.776;2024-02-21T04:32:14;49.85;;;17.70;;
83404;SDS011;73331;48.168;20.776;2024-02-21T04:33:45;37.58;;;17.08;;
83404;SDS011;73331;48.168;20.776;2024-02-21T04:35:16;44.88;;;21.02;;
83404;SDS011;73331;48.168;20.776;2024-02-21T04:36:46;36.35;;;14.70;;
83404;SDS011;73331;48.168;20.776;2024-02-21T04:38:17;34.42;;;14.02;;
83404;SDS011;73331;48.168;20.776;2024-02-21T04:39:48;34.85;;;13.00;;
83404;SDS011;73331;48.168;20.776;2024-02-21T04:41:19;35.45;;;14.25;;
83404;SDS011;73331;48.168;20.776;2024-02-21T04:42:50;36.15;;;12.93;;
83404;SDS011;73331;48.168;20.776;2024-02-21T04:44:20;38.65;;;14.60;;
83404;SDS011;73331;48.168;20.776;2024-02-21T04:45:52;36.20;;;14.10;;
83404;SDS011;73331;48.168;20.776;2024-02-21T04:47:23;36.90;;;14.05;;
83404;SDS011;73331;48.168;20.776;2024-02-21T04:48:55;37.17;;;13.95;;
83404;SDS011;73331;48.168;20.776;2024-02-21T04:50:26;34.45;;;13.38;;
83404;SDS011;73331;48.168;20.776;2024-02-21T04:51:57;35.53;;;14.18;;
83404;SDS011;73331;48.168;20.776;2024-02-21T04:53:28;36.13;;;14.70;;
83404;SDS011;73331;48.168;20.776;2024-02-21T04:54:58;43.47;;;14.35;;
83404;SDS011;73331;48.168;20.776;2024-02-21T04:56:28;39.15;;;14.95;;
83404;SDS011;73331;48.168;20.776;2024-02-21T04:57:59;36.50;;;15.70;;
83404;SDS011;73331;48.168;20.776;2024-02-21T04:59:32;34.47;;;13.57;;
83404;SDS011;73331;48.168;20.776;2024-02-21T05:01:03;38.42;;;14.57;;
83404;SDS011;73331;48.168;20.776;2024-02-21T05:02:33;36.13;;;14.20;;
83404;SDS011;73331;48.168;20.776;2024-02-21T05:04:04;41.70;;;15.23;;
83404;SDS011;73331;48.168;20.776;2024-02-21T05:05:34;40.78;;;14.27;;
83404;SDS011;73331;48.168;20.776;2024-02-21T05:07:05;37.53;;;15.90;;
83404;SDS011;73331;48.168;20.776;2024-02-21T05:08:36;37.42;;;14.40;;
83404;SDS011;73331;48.168;20.776;2024-02-21T05:10:07;35.22;;;13.60;;
83404;SDS011;73331;48.168;20.776;2024-02-21T05:11:38;35.50;;;14.07;;
83404;SDS011;73331;48.168;20.776;2024-02-21T05:13:08;37.38;;;15.27;;
83404;SDS011;73331;48.168;20.776;2024-02-21T05:14:39;41.65;;;15.75;;
83404;SDS011;73331;48.168;20.776;2024-02-21T05:16:09;49.15;;;16.83;;
83404;SDS011;73331;48.168;20.776;2024-02-21T05:17:40;41.78;;;15.57;;
83404;SDS011;73331;48.168;20.776;2024-02-21T05:19:10;40.05;;;13.60;;
83404;SDS011;73331;48.168;20.776;2024-02-21T05:20:41;33.28;;;13.93;;
83404;SDS011;73331;48.168;20.776;2024-02-21T05:22:11;38.58;;;15.05;;
83404;SDS011;73331;48.168;20.776;2024-02-21T05:23:42;35.63;;;14.73;;
83404;SDS011;73331;48.168;20.776;2024-02-21T05:25:12;38.47;;;13.88;;
83404;SDS011;73331;48.168;20.776;2024-02-21T05:26:43;33.90;;;13.40;;
83404;SDS011;73331;48.168;20.776;2024-02-21T05:28:13;34.78;;;14.32;;
83404;SDS011;73331;48.168;20.776;2024-02-21T05:29:44;38.50;;;13.73;;
83404;SDS011;73331;48.168;20.776;2024-02-21T05:31:14;37.95;;;14.52;;
83404;SDS011;73331;48.168;20.776;2024-02-21T05:32:46;32.13;;;13.88;;
83404;SDS011;73331;48.168;20.776;2024-02-21T05:34:17;28.42;;;11.98;;
83404;SDS011;73331;48.168;20.776;2024-02-21T05:35:48;31.00;;;13.07;;
83404;SDS011;73331;48.168;20.776;2024-02-21T05:37:18;31.48;;;11.82;;
83404;SDS011;73331;48.168;20.776;2024-02-21T05:38:49;34.30;;;13.75;;
83404;SDS011;73331;48.168;20.776;2024-02-21T05:40:19;24.63;;;11.00;;
83404;SDS011;73331;48.168;20.776;2024-02-21T05:41:50;29.00;;;12.00;;
83404;SDS011;73331;48.168;20.776;2024-02-21T05:43:21;32.85;;;12.98;;
83404;SDS011;73331;48.168;20.776;2024-02-21T05:44:51;33.25;;;14.10;;
83404;SDS011;73331;48.168;20.776;2024-02-21T05:46:21;30.95;;;14.77;;
83404;SDS011;73331;48.168;20.776;2024-02-21T05:47:52;36.72;;;15.85;;
83404;SDS011;73331;48.168;20.776;2024-02-21T05:49:22;41.28;;;15.98;;
83404;SDS011;73331;48.168;20.776;2024-02-21T05:50:53;39.60;;;15.20;;
83404;SDS011;73331;48.168;20.776;2024-02-21T05:52:24;41.25;;;16.15;;
83404;SDS011;73331;48.168;20.776;2024-02-21T05:53:54;40.45;;;16.20;;
83404;SDS011;73331;48.168;20.776;2024-02-21T05:55:25;42.42;;;17.13;;
83404;SDS011;73331;48.168;20.776;2024-02-21T05:56:55;41.17;;;16.92;;
83404;SDS011;73331;48.168;20.776;2024-02-21T05:58:27;43.50;;;17.38;;
83404;SDS011;73331;48.168;20.776;2024-02-21T05:59:57;41.92;;;17.15;;
83404;SDS011;73331;48.168;20.776;2024-02-21T06:01:28;46.47;;;18.27;;
83404;SDS011;73331;48.168;20.776;2024-02-21T06:02:59;44.15;;;17.88;;
83404;SDS011;73331;48.168;20.776;2024-02-21T06:04:29;42.55;;;17.13;;
83404;SDS011;73331;48.168;20.776;2024-02-21T06:06:00;43.08;;;17.48;;
83404;SDS011;73331;48.168;20.776;2024-02-21T06:07:31;48.10;;;19.55;;
83404;SDS011;73331;48.168;20.776;2024-02-21T06:09:01;46.55;;;17.73;;
83404;SDS011;73331;48.168;20.776;2024-02-21T06:10:33;43.85;;;16.40;;
83404;SDS011;73331;48.168;20.776;2024-02-21T06:12:03;38.30;;;14.68;;
83404;SDS011;73331;48.168;20.776;2024-02-21T06:13:37;46.08;;;18.55;;
83404;SDS011;73331;48.168;20.776;2024-02-21T06:15:09;43.72;;;17.02;;
83404;SDS011;73331;48.168;20.776;2024-02-21T06:16:39;42.30;;;17.38;;
83404;SDS011;73331;48.168;20.776;2024-02-21T06:18:13;39.88;;;18.10;;
83404;SDS011;73331;48.168;20.776;2024-02-21T06:19:44;45.78;;;18.35;;
83404;SDS011;73331;48.168;20.776;2024-02-21T06:21:15;41.50;;;17.77;;
83404;SDS011;73331;48.168;20.776;2024-02-21T06:22:46;47.38;;;18.63;;
83404;SDS011;73331;48.168;20.776;2024-02-21T06:24:17;45.85;;;18.23;;
83404;SDS011;73331;48.168;20.776;2024-02-21T06:25:47;53.97;;;20.80;;
83404;SDS011;73331;48.168;20.776;2024-02-21T06:27:18;54.15;;;21.27;;
83404;SDS011;73331;48.168;20.776;2024-02-21T06:28:48;52.95;;;21.38;;
83404;SDS011;73331;48.168;20.776;2024-02-21T06:30:19;60.83;;;22.73;;
83404;SDS011;73331;48.168;20.776;2024-02-21T06:31:49;54.45;;;22.02;;
83404;SDS011;73331;48.168;20.776;2024-02-21T06:33:20;55.95;;;21.85;;
83404;SDS011;73331;48.168;20.776;2024-02-21T06:34:54;57.15;;;20.40;;
83404;SDS011;73331;48.168;20.776;2024-02-21T06:36:25;51.58;;;20.05;;
83404;SDS011;73331;48.168;20.776;2024-02-21T06:37:55;45.13;;;18.55;;
83404;SDS011;73331;48.168;20.776;2024-02-21T06:39:26;46.63;;;19.08;;
83404;SDS011;73331;48.168;20.776;2024-02-21T06:40:58;57.30;;;23.10;;
83404;SDS011;73331;48.168;20.776;2024-02-21T06:42:30;49.08;;;19.80;;
83404;SDS011;73331;48.168;20.776;2024-02-21T06:44:01;53.13;;;20.15;;
83404;SDS011;73331;48.168;20.776;2024-02-21T06:45:32;48.88;;;19.92;;
83404;SDS011;73331;48.168;20.776;2024-02-21T06:47:03;48.33;;;18.65;;
83404;SDS011;73331;48.168;20.776;2024-02-21T06:48:33;47.75;;;19.13;;
83404;SDS011;73331;48.168;20.776;2024-02-21T06:50:04;41.03;;;16.10;;
83404;SDS011;73331;48.168;20.776;2024-02-21T06:51:35;39.60;;;17.90;;
83404;SDS011;73331;48.168;20.776;2024-02-21T06:53:07;40.95;;;17.77;;
83404;SDS011;73331;48.168;20.776;2024-02-21T06:54:37;46.33;;;19.17;;
83404;SDS011;73331;48.168;20.776;2024-02-21T06:56:10;50.95;;;17.15;;
83404;SDS011;73331;48.168;20.776;2024-02-21T06:57:40;39.22;;;17.40;;
83404;SDS011;73331;48.168;20.776;2024-02-21T06:59:11;44.38;;;18.38;;
83404;SDS011;73331;48.168;20.776;2024-02-21T07:00:45;43.28;;;17.88;;
83404;SDS011;73331;48.168;20.776;2024-02-21T07:02:16;44.83;;;18.13;;
83404;SDS011;73331;48.168;20.776;2024-02-21T07:03:46;42.00;;;18.27;;
83404;SDS011;73331;48.168;20.776;2024-02-21T07:05:17;38.13;;;16.05;;
83404;SDS011;73331;48.168;20.776;2024-02-21T07:06:47;35.95;;;16.02;;
83404;SDS011;73331;48.168;20.776;2024-02-21T07:08:18;35.65;;;17.13;;
83404;SDS011;73331;48.168;20.776;2024-02-21T07:09:48;38.58;;;16.27;;
83404;SDS011;73331;48.168;20.776;2024-02-21T07:11:19;34.50;;;16.23;;
83404;SDS011;73331;48.168;20.776;2024-02-21T07:12:49;33.60;;;14.65;;
83404;SDS011;73331;48.168;20.776;2024-02-21T07:14:22;36.15;;;14.88;;
83404;SDS011;73331;48.168;20.776;2024-02-21T07:15:52;30.70;;;13.02;;
83404;SDS011;73331;48.168;20.776;2024-02-21T07:17:23;26.83;;;12.38;;
83404;SDS011;73331;48.168;20.776;2024-02-21T07:18:53;24.23;;;11.40;;
83404;SDS011;73331;48.168;20.776;2024-02-21T07:20:25;22.52;;;10.70;;
83404;SDS011;73331;48.168;20.776;2024-02-21T07:21:55;26.17;;;11.52;;
83404;SDS011;73331;48.168;20.776;2024-02-21T07:23:26;19.20;;;9.90;;
83404;SDS011;73331;48.168;20.776;2024-02-21T07:24:57;17.88;;;9.20;;
83404;SDS011;73331;48.168;20.776;2024-02-21T07:26:27;14.43;;;8.55;;
83404;SDS011;73331;48.168;20.776;2024-02-21T07:27:58;14.68;;;7.05;;
83404;SDS011;73331;48.168;20.776;2024-02-21T07:29:28;14.30;;;6.75;;
83404;SDS011;73331;48.168;20.776;2024-02-21T07:30:59;15.10;;;7.32;;
83404;SDS011;73331;48.168;20.776;2024-02-21T07:32:30;14.18;;;7.55;;
83404;SDS011;73331;48.168;20.776;2024-02-21T07:34:00;13.75;;;6.65;;
83404;SDS011;73331;48.168;20.776;2024-02-21T07:35:31;13.98;;;7.32;;
83404;SDS011;73331;48.168;20.776;2024-02-21T07:37:01;11.60;;;6.20;;
83404;SDS011;73331;48.168;20.776;2024-02-21T07:38:32;15.52;;;7.05;;
83404;SDS011;73331;48.168;20.776;2024-02-21T07:40:03;12.20;;;6.13;;
83404;SDS011;73331;48.168;20.776;2024-02-21T07:41:35;11.32;;;5.72;;
83404;SDS011;73331;48.168;20.776;2024-02-21T07:43:06;9.63;;;5.25;;
83404;SDS011;73331;48.168;20.776;2024-02-21T07:44:36;9.70;;;4.70;;
83404;SDS011;73331;48.168;20.776;2024-02-21T07:46:10;11.20;;;5.22;;
83404;SDS011;73331;48.168;20.776;2024-02-21T07:47:40;10.80;;;5.32;;
83404;SDS011;73331;48.168;20.776;2024-02-21T07:49:11;11.50;;;5.70;;
83404;SDS011;73331;48.168;20.776;2024-02-21T07:50:41;9.82;;;4.97;;
83404;SDS011;73331;48.168;20.776;2024-02-21T07:52:12;20.23;;;12.10;;
83404;SDS011;73331;48.168;20.776;2024-02-21T07:53:42;10.35;;;6.90;;
83404;SDS011;73331;48.168;20.776;2024-02-21T07:55:14;8.60;;;4.18;;
83404;SDS011;73331;48.168;20.776;2024-02-21T07:56:45;8.75;;;4.63;;
83404;SDS011;73331;48.168;20.776;2024-02-21T07:58:16;8.38;;;4.85;;
83404;SDS011;73331;48.168;20.776;2024-02-21T07:59:46;9.80;;;5.05;;
83404;SDS011;73331;48.168;20.776;2024-02-21T08:01:19;10.55;;;5.75;;
83404;SDS011;73331;48.168;20.776;2024-02-21T08:02:51;9.65;;;5.30;;
83404;SDS011;73331;48.168;20.776;2024-02-21T08:04:21;10.73;;;5.88;;
83404;SDS011;73331;48.168;20.776;2024-02-21T08:05:52;10.52;;;5.40;;
83404;SDS011;73331;48.168;20.776;2024-02-21T08:07:22;11.73;;;6.78;;
83404;SDS011;73331;48.168;20.776;2024-02-21T08:08:53;14.60;;;7.00;;
83404;SDS011;73331;48.168;20.776;2024-02-21T08:10:24;13.80;;;7.63;;
83404;SDS011;73331;48.168;20.776;2024-02-21T08:11:54;13.13;;;6.65;;
83404;SDS011;73331;48.168;20.776;2024-02-21T08:13:25;11.02;;;5.78;;
83404;SDS011;73331;48.168;20.776;2024-02-21T08:14:55;14.43;;;6.78;;
83404;SDS011;73331;48.168;20.776;2024-02-21T08:16:26;11.50;;;6.20;;
83404;SDS011;73331;48.168;20.776;2024-02-21T08:17:57;12.05;;;5.75;;
83404;SDS011;73331;48.168;20.776;2024-02-21T08:19:29;14.15;;;5.75;;
83404;SDS011;73331;48.168;20.776;2024-02-21T08:21:00;14.38;;;7.55;;
83404;SDS011;73331;48.168;20.776;2024-02-21T08:22:31;12.45;;;6.80;;
83404;SDS011;73331;48.168;20.776;2024-02-21T08:24:02;13.38;;;5.85;;
83404;SDS011;73331;48.168;20.776;2024-02-21T08:25:33;11.32;;;5.63;;
83404;SDS011;73331;48.168;20.776;2024-02-21T08:27:04;11.35;;;5.78;;
83404;SDS011;73331;48.168;20.776;2024-02-21T08:28:34;11.95;;;5.40;;
83404;SDS011;73331;48.168;20.776;2024-02-21T08:30:05;8.68;;;5.25;;
83404;SDS011;73331;48.168;20.776;2024-02-21T08:31:37;9.77;;;5.53;;
83404;SDS011;73331;48.168;20.776;2024-02-21T08:33:08;10.60;;;5.07;;
83404;SDS011;73331;48.168;20.776;2024-02-21T08:34:38;11.85;;;5.90;;
83404;SDS011;73331;48.168;20.776;2024-02-21T08:36:09;11.35;;;6.32;;
83404;SDS011;73331;48.168;20.776;2024-02-21T08:37:47;12.82;;;6.30;;
83404;SDS011;73331;48.168;20.776;2024-02-21T08:39:18;9.13;;;4.85;;
83404;SDS011;73331;48.168;20.776;2024-02-21T08:40:48;9.35;;;4.93;;
83404;SDS011;73331;48.168;20.776;2024-02-21T08:42:19;8.63;;;4.28;;
83404;SDS011;73331;48.168;20.776;2024-02-21T08:43:53;7.68;;;4.40;;
83404;SDS011;73331;48.168;20.776;2024-02-21T08:45:24;12.75;;;5.40;;
83404;SDS011;73331;48.168;20.776;2024-02-21T08:46:55;9.18;;;4.93;;
83404;SDS011;73331;48.168;20.776;2024-02-21T08:48:25;10.20;;;5.63;;
83404;SDS011;73331;48.168;20.776;2024-02-21T08:49:56;9.75;;;5.20;;
83404;SDS011;73331;48.168;20.776;2024-02-21T08:51:26;13.70;;;5.18;;